Time;durP1;ratioP1;P1;durP2;ratioP2;P2;SDS_P1;SDS_P2;PMS_P1;PMS_P2;Temp;Humidity;BMP_temperature;BMP_pressure;BME280_temperature;BME280_humidity;BME280_pressure;Samples;Min_cycle;Max_cycle;Signal;HPM_P1;HPM_P2
2023/08/06 00:00:00;;;;;;;0.40;0.40;;;22.80;67.30;;;23.11;53.40;93969.97;5058393;28;20215;-37
2023/08/06 00:02:27;;;;;;;0.40;0.40;;;22.80;67.20;;;23.10;53.04;93964.94;5041477;28;20192;-37
2023/08/06 00:04:54;;;;;;;0.40;0.40;;;22.80;67.20;;;23.10;53.23;93970.28;5074008;28;20224;-37
2023/08/06 00:07:21;;;;;;;0.40;0.40;;;22.80;67.20;;;23.09;53.24;93964.13;5058584;28;20192;-37
2023/08/06 00:09:48;;;;;;;0.40;0.40;;;22.80;67.20;;;23.09;53.39;93974.81;5058346;28;20207;-37
2023/08/06 00:12:15;;;;;;;0.40;0.40;;;22.80;67.20;;;23.08;53.27;93962.53;5058016;28;20195;-37
2023/08/06 00:14:43;;;;;;;0.40;0.40;;;22.80;67.20;;;23.08;53.24;93959.84;5058234;28;20230;-37
2023/08/06 00:17:10;;;;;;;0.30;0.30;;;22.80;67.20;;;23.08;53.45;93951.06;5057977;28;20195;-37
2023/08/06 00:19:38;;;;;;;0.38;0.38;;;22.80;67.20;;;23.06;53.35;93951.34;5058121;28;20257;-37
2023/08/06 00:22:05;;;;;;;0.47;0.47;;;22.80;67.20;;;23.06;53.19;93951.34;5057828;28;20285;-37
2023/08/06 00:24:33;;;;;;;0.32;0.32;;;22.80;67.20;;;23.06;53.51;93954.03;5056940;28;20243;-37
2023/08/06 00:27:00;;;;;;;0.30;0.30;;;22.80;67.20;;;23.05;53.42;93951.66;5057767;28;20198;-37
2023/08/06 00:29:27;;;;;;;0.40;0.40;;;22.80;67.20;;;23.05;53.33;93951.66;5057717;28;20277;-37
2023/08/06 00:31:54;;;;;;;0.50;0.50;;;22.80;67.20;;;23.04;53.39;93950.84;5057900;28;20214;-37
2023/08/06 00:34:22;;;;;;;0.40;0.40;;;22.80;67.20;;;23.03;53.30;93946.56;5056501;28;20206;-39
2023/08/06 00:36:48;;;;;;;0.30;0.30;;;22.80;67.20;;;23.02;53.29;93943.13;5057571;28;20202;-39
2023/08/06 00:39:16;;;;;;;0.40;0.40;;;22.80;67.20;;;23.02;53.36;93934.28;5057460;28;20207;-39
2023/08/06 00:41:43;;;;;;;0.40;0.40;;;22.80;67.20;;;23.03;53.12;93934.03;5056754;28;20244;-39
2023/08/06 00:44:10;;;;;;;0.30;0.30;;;22.80;68.10;;;23.02;53.40;93940.44;5057537;28;20288;-39
2023/08/06 00:46:37;;;;;;;0.40;0.40;;;22.80;67.20;;;23.02;53.16;93945.00;5056247;28;20579;-39
2023/08/06 00:49:05;;;;;;;0.38;0.38;;;22.80;67.20;;;23.01;53.20;93938.84;5056377;28;20207;-39
2023/08/06 00:51:32;;;;;;;0.40;0.40;;;22.80;67.20;;;23.00;53.27;93939.16;5056212;28;20665;-39
2023/08/06 00:54:00;;;;;;;0.40;0.40;;;22.80;67.20;;;23.00;53.24;93941.84;5057103;28;20223;-39
2023/08/06 00:56:28;;;;;;;0.40;0.40;;;22.70;67.10;;;22.97;53.08;93940.53;5072777;28;20202;-36
2023/08/06 00:58:56;;;;;;;0.40;0.40;;;22.70;67.10;;;22.97;53.27;93937.06;5056210;28;20198;-36
2023/08/06 01:01:23;;;;;;;0.40;0.40;;;22.70;67.00;;;22.95;53.11;93923.19;5057093;28;20192;-36
2023/08/06 01:03:50;;;;;;;0.40;0.40;;;22.70;67.10;;;22.94;53.22;93930.41;5056108;28;20199;-36
2023/08/06 01:06:39;;;;;;;0.40;0.40;;;22.70;67.10;;;22.94;53.28;93922.41;5039609;28;20202;-36
2023/08/06 01:09:42;;;;;;;0.50;0.50;;;22.70;67.20;;;22.92;53.29;93918.44;5056240;28;20187;-36
2023/08/06 01:12:52;;;;;;;0.40;0.40;;;22.70;67.20;;;22.90;53.05;93913.38;5055973;28;20278;-36
2023/08/06 01:15:32;;;;;;;0.43;0.43;;;22.70;67.10;;;22.88;53.31;93907.53;5055676;28;20217;-36
2023/08/06 01:17:59;;;;;;;0.40;0.40;;;22.70;68.00;;;22.88;53.18;93904.06;5056805;28;20250;-36
2023/08/06 01:20:31;;;;;;;0.45;0.45;;;22.60;67.00;;;22.89;53.58;93909.13;5056740;28;20198;-36
2023/08/06 01:22:58;;;;;;;0.40;0.40;;;22.60;67.00;;;22.89;53.17;93911.81;5056982;28;20191;-36
2023/08/06 01:26:03;;;;;;;0.40;0.40;;;22.60;67.10;;;22.87;53.27;93919.31;5055698;28;20661;-36
2023/08/06 01:29:12;;;;;;;0.40;0.40;;;22.60;67.10;;;22.85;53.50;93913.47;5055766;28;20204;-37
2023/08/06 01:31:41;;;;;;;0.40;0.40;;;22.60;67.10;;;22.84;53.24;93909.22;5055612;28;20231;-37
2023/08/06 01:34:21;;;;;;;0.40;0.40;;;22.60;67.10;;;22.84;53.41;93910.00;5056438;28;20511;-37
2023/08/06 01:36:50;;;;;;;0.40;0.40;;;22.60;67.10;;;22.84;53.34;93901.19;5055757;28;20195;-39
2023/08/06 01:39:20;;;;;;;0.40;0.40;;;22.60;67.10;;;22.85;53.27;93900.09;5072075;28;20278;-39
2023/08/06 01:41:48;;;;;;;0.40;0.40;;;22.60;67.10;;;22.84;53.49;93899.31;5056113;28;20188;-39
2023/08/06 01:44:17;;;;;;;0.40;0.40;;;22.60;67.20;;;22.85;53.58;93897.41;5055247;28;20305;-39
2023/08/06 01:46:44;;;;;;;0.30;0.30;;;22.60;67.20;;;22.85;53.43;93892.88;5055101;28;20301;-39
2023/08/06 01:49:11;;;;;;;0.40;0.40;;;22.60;67.10;;;22.86;53.63;93888.31;5056252;28;20231;-37
2023/08/06 01:51:38;;;;;;;0.40;0.40;;;22.60;67.10;;;22.85;53.34;93892.88;5055167;28;20345;-36
2023/08/06 01:54:05;;;;;;;0.40;0.40;;;22.60;67.20;;;22.86;53.32;93890.97;5054609;28;20242;-36
2023/08/06 01:56:32;;;;;;;0.47;0.47;;;22.60;67.20;;;22.85;53.31;93887.53;5054959;28;20237;-36
2023/08/06 01:59:00;;;;;;;0.40;0.40;;;22.60;67.10;;;22.86;53.53;93883.78;5055713;28;20270;-36
2023/08/06 02:01:31;;;;;;;0.40;0.40;;;22.60;67.20;;;22.85;53.25;93890.19;5055037;28;20283;-36
2023/08/06 02:03:58;;;;;;;0.40;0.40;;;22.60;67.10;;;22.86;53.63;93883.78;5054954;28;20213;-36
2023/08/06 02:06:25;;;;;;;0.40;0.40;;;22.60;67.10;;;22.85;53.53;93873.34;5038271;28;20291;-36
2023/08/06 02:08:52;;;;;;;0.40;0.40;;;22.60;67.10;;;22.85;53.29;93882.19;5056285;28;20188;-36
2023/08/06 02:11:19;;;;;;;0.40;0.40;;;22.60;67.10;;;22.85;53.30;93865.34;5054866;28;20196;-36
2023/08/06 02:13:46;;;;;;;0.40;0.40;;;22.60;67.10;;;22.84;53.48;93861.88;5056129;28;20558;-36
2023/08/06 02:16:18;;;;;;;0.30;0.30;;;22.60;67.10;;;22.84;53.02;93861.88;5054850;28;20199;-36
2023/08/06 02:18:45;;;;;;;0.40;0.40;;;22.60;67.10;;;22.84;53.67;93851.19;5055666;28;20261;-36
2023/08/06 02:21:12;;;;;;;0.40;0.40;;;22.60;66.30;;;22.84;53.79;93856.53;5055915;28;20252;-36
2023/08/06 02:23:39;;;;;;;0.40;0.40;;;22.60;67.20;;;22.84;53.56;93855.75;5056090;28;20192;-36
2023/08/06 02:26:07;;;;;;;0.40;0.40;;;22.60;67.20;;;22.84;53.39;93853.06;5055291;28;20230;-36
2023/08/06 02:28:34;;;;;;;0.40;0.40;;;22.60;67.20;;;22.83;53.29;93848.81;5054794;28;20232;-36
2023/08/06 02:31:01;;;;;;;0.40;0.40;;;22.60;67.20;;;22.85;53.40;93843.94;5054714;28;20210;-36
2023/08/06 02:33:29;;;;;;;0.40;0.40;;;22.60;67.20;;;22.85;53.29;93843.94;5039057;28;20301;-36
2023/08/06 02:36:01;;;;;;;0.40;0.40;;;22.60;67.20;;;22.84;53.32;93845.84;5054581;28;20255;-36
2023/08/06 02:38:28;;;;;;;0.40;0.40;;;22.60;67.20;;;22.83;53.32;93854.94;5054321;28;20619;-36
2023/08/06 02:40:56;;;;;;;0.40;0.40;;;22.60;67.10;;;22.83;53.22;93854.16;5054272;28;20642;-36
2023/08/06 02:43:23;;;;;;;0.40;0.40;;;22.60;67.10;;;22.82;53.34;93853.34;5070903;28;20205;-36
2023/08/06 02:45:51;;;;;;;0.40;0.40;;;22.60;67.10;;;22.81;53.31;93851.78;5054003;28;20245;-36
2023/08/06 02:48:18;;;;;;;0.40;0.40;;;22.60;67.10;;;22.81;53.32;93856.31;5054321;28;20215;-36
2023/08/06 02:50:45;;;;;;;0.50;0.50;;;22.60;67.10;;;22.81;53.28;93865.16;5054153;28;20237;-36
2023/08/06 02:53:13;;;;;;;0.50;0.50;;;22.60;67.10;;;22.80;53.42;93860.88;5055134;28;20558;-36
2023/08/06 02:55:47;;;;;;;0.40;0.40;;;22.60;68.00;;;22.79;53.39;93867.31;5037475;28;20230;-36
2023/08/06 02:58:22;;;;;;;0.40;0.40;;;22.60;67.10;;;22.80;53.52;93863.56;5054105;28;20195;-36
2023/08/06 03:01:06;;;;;;;0.40;0.40;;;22.60;67.10;;;22.78;53.21;93865.72;5054341;28;20206;-36
2023/08/06 03:03:44;;;;;;;0.40;0.40;;;22.60;67.20;;;22.77;53.47;93863.34;5039139;28;20203;-36
2023/08/06 03:06:18;;;;;;;0.43;0.43;;;22.60;67.20;;;22.76;53.30;93857.19;5053037;28;20296;-36
2023/08/06 03:08:49;;;;;;;0.50;0.50;;;22.60;67.20;;;22.77;53.26;93866.03;5053961;28;20195;-36
2023/08/06 03:11:16;;;;;;;0.40;0.40;;;22.50;67.10;;;22.76;53.28;93854.53;5053937;28;20613;-36
2023/08/06 03:13:45;;;;;;;0.30;0.30;;;22.50;67.10;;;22.76;53.55;93857.19;5054068;28;20216;-36
2023/08/06 03:16:12;;;;;;;0.40;0.40;;;22.50;67.10;;;22.76;53.39;93859.88;5053678;28;20225;-36
2023/08/06 03:18:39;;;;;;;0.40;0.40;;;22.50;67.00;;;22.75;53.42;93849.47;5055085;28;20642;-36
2023/08/06 03:21:08;;;;;;;0.38;0.38;;;22.50;67.10;;;22.76;53.31;93845.72;5054679;28;20614;-36
2023/08/06 03:23:36;;;;;;;0.40;0.40;;;22.60;67.10;;;22.75;53.36;93844.13;5055311;28;20237;-36
2023/08/06 03:26:04;;;;;;;0.40;0.40;;;22.50;67.10;;;22.74;53.26;93840.69;5037448;28;20241;-36
2023/08/06 03:28:32;;;;;;;0.40;0.40;;;22.50;67.00;;;22.73;53.31;93836.41;5053748;28;20198;-36
2023/08/06 03:31:04;;;;;;;0.40;0.40;;;22.50;67.10;;;22.72;53.50;93834.84;5053736;28;20222;-36
2023/08/06 03:33:39;;;;;;;0.30;0.30;;;22.50;67.10;;;22.72;53.31;93837.50;5053741;28;20244;-36
2023/08/06 03:36:11;;;;;;;0.30;0.30;;;22.50;67.10;;;22.71;53.31;93825.22;5054737;28;20627;-36
2023/08/06 03:38:39;;;;;;;0.40;0.40;;;22.50;67.10;;;22.70;53.26;93829.78;5053688;28;20205;-36
2023/08/06 03:41:08;;;;;;;0.30;0.30;;;22.50;67.10;;;22.70;53.44;93829.78;5053627;28;20204;-36
2023/08/06 03:43:35;;;;;;;0.40;0.40;;;22.50;67.10;;;22.70;53.30;93835.13;5053634;28;20202;-36
2023/08/06 03:46:05;;;;;;;0.30;0.30;;;22.50;67.10;;;22.70;53.15;93821.78;5053639;28;20233;-36
2023/08/06 03:48:33;;;;;;;0.40;0.40;;;22.50;67.10;;;22.70;53.25;93832.47;5053586;28;20200;-36
2023/08/06 03:51:01;;;;;;;0.43;0.43;;;22.50;67.10;;;22.69;53.39;93827.38;5053562;28;20192;-36
2023/08/06 03:53:29;;;;;;;0.40;0.40;;;22.50;67.10;;;22.69;53.40;93830.88;5053401;28;20235;-36
2023/08/06 03:55:59;;;;;;;0.40;0.40;;;22.40;67.10;;;22.68;53.32;93829.28;5037086;28;20302;-36
2023/08/06 03:58:27;;;;;;;0.43;0.43;;;22.50;67.20;;;22.68;53.65;93829.28;5053929;28;20253;-36
2023/08/06 04:01:02;;;;;;;0.40;0.40;;;22.40;67.00;;;22.67;53.32;93830.38;5053718;28;20207;-36
2023/08/06 04:03:35;;;;;;;0.40;0.40;;;22.40;67.00;;;22.67;53.31;93824.25;5053692;28;20694;-36
2023/08/06 04:06:06;;;;;;;0.40;0.40;;;22.40;67.10;;;22.66;53.41;93825.31;5054380;28;20236;-36
2023/08/06 04:08:33;;;;;;;0.43;0.43;;;22.40;67.10;;;22.66;53.51;93823.44;5054347;28;20203;-36
2023/08/06 04:11:00;;;;;;;0.40;0.40;;;22.40;67.00;;;22.66;53.47;93817.31;5053387;28;20261;-36
2023/08/06 04:13:27;;;;;;;0.40;0.40;;;22.40;67.00;;;22.66;53.41;93814.63;5053312;28;20227;-36
2023/08/06 04:16:03;;;;;;;0.40;0.40;;;22.40;67.00;;;22.63;53.44;93812.53;5053155;28;20213;-36
2023/08/06 04:18:31;;;;;;;0.43;0.43;;;22.40;67.10;;;22.66;53.53;93822.66;5039815;28;20195;-36
2023/08/06 04:20:59;;;;;;;0.40;0.40;;;22.40;67.10;;;22.66;53.36;93812.75;5057862;28;20539;-36
2023/08/06 04:23:26;;;;;;;0.40;0.40;;;22.40;67.10;;;22.66;53.65;93817.31;5057821;28;20220;-36
2023/08/06 04:25:58;;;;;;;0.40;0.40;;;22.40;67.10;;;22.67;53.37;93814.31;5056622;28;20677;-36
2023/08/06 04:28:30;;;;;;;0.40;0.40;;;22.40;67.10;;;22.67;53.33;93810.88;5057888;28;20748;-36
2023/08/06 04:30:59;;;;;;;0.40;0.40;;;22.40;67.10;;;22.66;53.34;93815.41;5056715;28;20195;-36
2023/08/06 04:33:28;;;;;;;0.40;0.40;;;22.40;67.10;;;22.66;53.32;93812.75;5056949;28;20192;-36
2023/08/06 04:35:59;;;;;;;0.40;0.40;;;22.40;67.10;;;22.67;53.30;93810.88;5057454;28;20274;-36
2023/08/06 04:38:27;;;;;;;0.40;0.40;;;22.40;67.10;;;22.66;53.33;93801.28;5040139;28;20270;-36
2023/08/06 04:40:55;;;;;;;0.45;0.45;;;22.40;67.10;;;22.66;53.42;93806.63;5056539;28;20206;-36
2023/08/06 04:43:24;;;;;;;0.40;0.40;;;22.40;67.10;;;22.65;53.54;93797.00;5057319;28;20205;-36
2023/08/06 04:45:53;;;;;;;0.40;0.40;;;22.40;67.10;;;22.64;53.56;93795.41;5056371;28;20721;-36
2023/08/06 04:48:22;;;;;;;0.40;0.40;;;22.40;67.10;;;22.65;53.43;93789.00;5057458;28;20222;-36
2023/08/06 04:50:50;;;;;;;0.40;0.40;;;22.40;67.10;;;22.66;53.35;93790.56;5057401;28;20576;-36
2023/08/06 04:53:17;;;;;;;0.30;0.30;;;22.40;67.10;;;22.65;53.56;93789.00;5056503;28;20234;-36
2023/08/06 04:55:45;;;;;;;0.40;0.40;;;22.40;67.10;;;22.66;53.55;93782.56;5057479;28;20210;-36
2023/08/06 04:58:13;;;;;;;0.40;0.40;;;22.40;67.20;;;22.65;53.65;93789.75;5057019;28;20260;-36
2023/08/06 05:00:40;;;;;;;0.40;0.40;;;22.40;67.10;;;22.65;53.56;93795.13;5056178;28;20262;-36
2023/08/06 05:03:07;;;;;;;0.40;0.40;;;22.40;67.10;;;22.65;53.64;93795.13;5057873;28;20273;-36
2023/08/06 05:05:35;;;;;;;0.40;0.40;;;22.40;67.10;;;22.64;53.61;93792.75;5056026;28;20666;-36
2023/08/06 05:08:02;;;;;;;0.40;0.40;;;22.40;67.20;;;22.64;53.55;93787.41;5056895;28;20187;-36
2023/08/06 05:10:29;;;;;;;0.40;0.40;;;22.40;67.10;;;22.63;53.32;93783.94;5056936;28;20192;-36
2023/08/06 05:12:56;;;;;;;0.40;0.40;;;22.40;67.10;;;22.64;53.27;93779.38;5057152;28;20207;-36
2023/08/06 05:15:25;;;;;;;0.40;0.40;;;22.40;68.00;;;22.63;53.36;93791.97;5056870;28;20236;-36
2023/08/06 05:17:52;;;;;;;0.40;0.40;;;22.40;67.10;;;22.63;53.11;93788.47;5056097;28;20218;-36
2023/08/06 05:20:20;;;;;;;0.40;0.40;;;22.40;67.10;;;22.64;53.36;93792.75;5056755;28;20639;-36
2023/08/06 05:22:47;;;;;;;0.40;0.40;;;22.40;67.20;;;22.62;53.51;93795.72;5056681;28;20260;-36
2023/08/06 05:25:14;;;;;;;0.40;0.40;;;22.40;67.20;;;22.63;53.50;93793.81;5055727;28;20219;-36
2023/08/06 05:27:41;;;;;;;0.40;0.40;;;22.40;67.10;;;22.62;53.44;93801.06;5056688;28;20188;-36
2023/08/06 05:30:10;;;;;;;0.40;0.40;;;22.40;67.10;;;22.63;53.27;93796.50;5055889;28;20282;-36
2023/08/06 05:32:37;;;;;;;0.40;0.40;;;22.40;67.10;;;22.63;53.46;93805.31;5056534;28;20591;-36
2023/08/06 05:35:04;;;;;;;0.43;0.43;;;22.40;67.10;;;22.63;53.43;93799.16;5056516;28;20631;-36
2023/08/06 05:37:32;;;;;;;0.40;0.40;;;22.40;67.20;;;22.62;53.44;93798.38;5056290;28;20192;-36
2023/08/06 05:39:59;;;;;;;0.40;0.40;;;22.40;67.10;;;22.62;53.35;93798.38;5056678;28;20672;-36
2023/08/06 05:42:26;;;;;;;0.50;0.50;;;22.40;67.10;;;22.62;53.51;93800.25;5055425;28;20214;-36
2023/08/06 05:44:53;;;;;;;0.40;0.40;;;22.40;67.10;;;22.59;53.41;93793.63;5038897;28;20281;-36
2023/08/06 05:47:20;;;;;;;0.40;0.40;;;22.40;67.00;;;22.59;53.31;93790.16;5055283;28;20314;-36
2023/08/06 05:49:47;;;;;;;0.47;0.47;;;22.40;67.10;;;22.59;53.22;93796.28;5071919;28;20193;-36
2023/08/06 05:52:14;;;;;;;0.40;0.40;;;22.40;67.10;;;22.59;53.51;93793.63;5056160;28;20253;-36
2023/08/06 05:54:41;;;;;;;0.40;0.40;;;22.40;68.00;;;22.59;53.45;93798.19;5056380;28;20211;-36
2023/08/06 05:57:08;;;;;;;0.40;0.40;;;22.40;67.10;;;22.58;53.39;93792.03;5056083;28;20724;-36
2023/08/06 05:59:35;;;;;;;0.40;0.40;;;22.40;67.10;;;22.58;53.38;93800.06;5055960;28;20653;-36
2023/08/06 06:02:03;;;;;;;0.43;0.43;;;22.40;67.20;;;22.60;53.38;93800.56;5056301;28;20286;-36
2023/08/06 06:04:30;;;;;;;0.60;0.60;;;22.40;67.10;;;22.59;53.42;93803.53;5056495;28;20191;-36
2023/08/06 06:06:57;;;;;;;0.40;0.40;;;22.40;67.20;;;22.60;53.18;93800.56;5071773;28;20219;-36
2023/08/06 06:09:24;;;;;;;0.47;0.47;;;22.40;67.20;;;22.60;53.41;93802.44;5055826;28;20197;-36
2023/08/06 06:11:51;;;;;;;0.40;0.40;;;22.40;67.20;;;22.59;53.69;93798.97;5071739;28;20201;-38
2023/08/06 06:14:19;;;;;;;0.40;0.40;;;22.40;67.20;;;22.60;53.45;93803.22;5056187;28;20195;-37
2023/08/06 06:16:46;;;;;;;0.40;0.40;;;22.40;67.20;;;22.61;53.66;93796.03;5056123;28;20278;-37
2023/08/06 06:19:13;;;;;;;0.40;0.40;;;22.40;67.10;;;22.60;53.58;93795.22;5054992;28;20196;-36
2023/08/06 06:21:41;;;;;;;0.40;0.40;;;22.40;67.20;;;22.60;53.63;93797.88;5055143;28;20610;-40
2023/08/06 06:24:08;;;;;;;0.40;0.40;;;22.40;67.20;;;22.61;53.15;93793.34;5054827;28;20263;-39
2023/08/06 06:26:35;;;;;;;0.43;0.43;;;22.40;67.20;;;22.60;53.53;93799.78;5055771;28;20285;-36
2023/08/06 06:29:02;;;;;;;0.40;0.40;;;22.40;67.20;;;22.60;53.39;93795.22;5055524;28;20571;-42
2023/08/06 06:31:31;;;;;;;0.40;0.40;;;22.40;67.20;;;22.57;53.35;93789.66;5055519;28;20194;-37
2023/08/06 06:33:58;;;;;;;0.40;0.40;;;22.40;67.20;;;22.62;53.51;93797.59;5071369;28;20255;-47
2023/08/06 06:36:27;;;;;;;0.40;0.40;;;22.40;67.20;;;22.61;53.66;93798.69;5054411;28;20224;-39
2023/08/06 06:38:54;;;;;;;0.40;0.40;;;22.40;67.20;;;22.60;53.47;93791.75;5054432;28;20195;-39
2023/08/06 06:41:21;;;;;;;0.40;0.40;;;22.40;67.20;;;22.61;53.68;93793.34;5055145;28;20283;-36
2023/08/06 06:43:48;;;;;;;0.40;0.40;;;22.40;67.20;;;22.61;53.57;93804.03;5055331;28;20254;-36
2023/08/06 06:46:15;;;;;;;0.40;0.40;;;22.40;67.10;;;22.60;53.55;93799.78;5055744;28;20249;-37
2023/08/06 06:48:42;;;;;;;0.40;0.40;;;22.40;67.20;;;22.58;53.43;93800.06;5055147;28;20324;-40
2023/08/06 06:51:09;;;;;;;0.43;0.43;;;22.40;67.20;;;22.61;53.57;93793.34;5055319;28;20639;-39
2023/08/06 06:53:37;;;;;;;0.40;0.40;;;22.40;67.20;;;22.62;53.39;93797.59;5055473;28;20308;-37
2023/08/06 06:56:05;;;;;;;0.40;0.40;;;22.40;67.20;;;22.61;53.78;93794.13;5054984;28;20222;-39
2023/08/06 06:58:33;;;;;;;0.50;0.50;;;22.40;67.20;;;22.62;53.49;93800.25;5055249;28;20239;-39
2023/08/06 07:01:00;;;;;;;0.40;0.40;;;22.40;67.20;;;22.61;53.53;93801.38;5054800;28;20279;-38
2023/08/06 07:03:27;;;;;;;0.40;0.40;;;22.40;67.20;;;22.61;53.63;93804.81;5055248;28;20703;-38
2023/08/06 07:05:59;;;;;;;0.40;0.40;;;22.40;67.20;;;22.61;53.40;93815.50;5054882;28;20211;-39
2023/08/06 07:08:26;;;;;;;0.45;0.45;;;22.40;67.20;;;22.61;53.29;93820.06;5054917;28;20241;-37
2023/08/06 07:11:04;;;;;;;0.43;0.43;;;22.40;67.10;;;22.61;53.47;93822.75;5055684;28;20210;-39
2023/08/06 07:13:33;;;;;;;0.40;0.40;;;22.40;67.10;;;22.58;53.10;93824.09;5055137;28;20585;-39
2023/08/06 07:16:00;;;;;;;0.43;0.43;;;22.40;67.10;;;22.58;53.36;93823.31;5055458;28;20247;-36
2023/08/06 07:18:28;;;;;;;0.40;0.40;;;22.40;67.10;;;22.57;53.46;93819.88;5054114;28;20637;-39
2023/08/06 07:20:56;;;;;;;0.40;0.40;;;22.40;67.10;;;22.57;53.46;93822.53;5055666;28;20281;-39
2023/08/06 07:23:25;;;;;;;0.30;0.30;;;22.40;67.10;;;22.56;53.12;93826.28;5054942;28;20631;-48
2023/08/06 07:25:52;;;;;;;0.50;0.50;;;22.40;67.20;;;22.55;53.32;93828.16;5054732;28;20350;-39
2023/08/06 07:28:20;;;;;;;0.40;0.40;;;22.40;67.10;;;22.54;53.36;93821.25;5055109;28;20621;-37
2023/08/06 07:30:47;;;;;;;0.40;0.40;;;22.40;67.10;;;22.54;53.44;93826.59;5054859;28;20642;-41
2023/08/06 07:33:14;;;;;;;0.40;0.40;;;22.30;67.00;;;22.55;53.43;93830.06;5037422;28;20214;-36
2023/08/06 07:35:43;;;;;;;0.40;0.40;;;22.30;67.00;;;22.54;53.40;93823.94;5055022;28;20259;-39
2023/08/06 07:38:10;;;;;;;0.30;0.30;;;22.30;67.10;;;22.55;53.26;93820.13;5053864;28;20206;-37
2023/08/06 07:40:39;;;;;;;0.43;0.43;;;22.30;67.10;;;22.54;53.23;93818.59;5053986;28;20649;-36
2023/08/06 07:43:06;;;;;;;0.47;0.47;;;22.30;67.10;;;22.55;53.29;93817.47;5053521;28;20241;-37
2023/08/06 07:45:36;;;;;;;0.40;0.40;;;22.30;67.10;;;22.55;53.21;93806.00;5054752;28;20631;-36
2023/08/06 07:48:03;;;;;;;0.40;0.40;;;22.30;67.10;;;22.56;53.57;93794.22;5054878;28;20199;-39
2023/08/06 07:50:31;;;;;;;0.40;0.40;;;22.30;67.10;;;22.57;53.45;93800.34;5066473;28;20266;-39
2023/08/06 07:52:58;;;;;;;0.40;0.40;;;22.40;67.30;;;22.57;53.37;93789.66;5075389;28;20714;-37
2023/08/06 07:55:26;;;;;;;0.40;0.40;;;22.40;67.30;;;22.58;53.59;93801.94;5077816;28;20202;-39
2023/08/06 07:57:54;;;;;;;0.40;0.40;;;22.40;67.20;;;22.59;53.53;93795.50;5075535;28;20203;-39
2023/08/06 08:00:22;;;;;;;0.40;0.40;;;22.40;67.30;;;22.59;53.47;93798.19;5057418;28;20647;-36
2023/08/06 08:02:50;;;;;;;0.40;0.40;;;22.40;67.20;;;22.60;53.40;93786.41;5058256;28;20589;-37
2023/08/06 08:05:18;;;;;;;0.40;0.40;;;22.40;67.20;;;22.59;53.47;93788.28;5074044;28;20267;-36
2023/08/06 08:07:45;;;;;;;0.40;0.40;;;22.40;67.20;;;22.59;53.55;93785.59;5066329;28;20226;-37
2023/08/06 08:10:12;;;;;;;0.50;0.50;;;22.40;67.20;;;22.60;53.44;93784.53;5069434;28;20186;-37
2023/08/06 08:12:40;;;;;;;0.40;0.40;;;22.40;67.20;;;22.60;53.77;93779.19;5073276;28;20201;-39
2023/08/06 08:15:07;;;;;;;0.47;0.47;;;22.40;67.20;;;22.61;53.36;93782.66;5058917;28;20628;-39
2023/08/06 08:17:34;;;;;;;0.32;0.32;;;22.40;67.20;;;22.61;53.53;93785.34;5061505;28;20206;-36
2023/08/06 08:20:02;;;;;;;0.40;0.40;;;22.40;67.20;;;22.60;53.38;93773.06;5068904;28;20202;-36
2023/08/06 08:22:29;;;;;;;0.40;0.40;;;22.40;67.20;;;22.61;53.38;93786.09;5057977;28;20191;-39
2023/08/06 08:24:56;;;;;;;0.52;0.52;;;22.40;67.20;;;22.61;53.60;93778.09;5058196;28;20290;-36
2023/08/06 08:27:24;;;;;;;0.40;0.40;;;22.40;67.20;;;22.60;53.49;93786.41;5069541;28;20236;-37
2023/08/06 08:29:51;;;;;;;0.40;0.40;;;22.40;67.10;;;22.61;53.38;93788.00;5077845;28;20278;-37
2023/08/06 08:32:18;;;;;;;0.40;0.40;;;22.40;67.10;;;22.60;53.45;93786.41;5078209;28;20200;-37
2023/08/06 08:34:45;;;;;;;0.40;0.40;;;22.40;67.10;;;22.60;53.39;93778.41;5076358;28;20194;-36
2023/08/06 08:37:13;;;;;;;0.40;0.40;;;22.40;67.10;;;22.60;53.36;93789.09;5076608;28;20719;-39
2023/08/06 08:39:40;;;;;;;0.40;0.40;;;22.40;67.10;;;22.60;53.28;93784.53;5065098;28;20203;-39
2023/08/06 08:42:10;;;;;;;0.40;0.40;;;22.40;67.20;;;22.61;53.35;93782.66;5069449;28;20203;-36
2023/08/06 08:44:41;;;;;;;0.40;0.40;;;22.40;67.10;;;22.60;53.38;93781.06;5057726;28;20226;-36
2023/08/06 08:47:10;;;;;;;0.40;0.40;;;22.40;67.20;;;22.61;53.63;93782.66;5076778;28;20234;-39
2023/08/06 08:49:38;;;;;;;0.40;0.40;;;22.40;67.20;;;22.61;53.41;93785.34;5075453;28;20625;-37
2023/08/06 08:52:07;;;;;;;0.32;0.32;;;22.40;67.20;;;22.62;53.46;93779.69;5076673;28;20256;-36
2023/08/06 08:54:37;;;;;;;0.40;0.40;;;22.40;67.20;;;22.63;53.40;93780.47;5076213;28;20277;-37
2023/08/06 08:57:05;;;;;;;0.40;0.40;;;22.40;67.20;;;22.63;53.27;93775.94;5062564;28;20217;-39
2023/08/06 08:59:35;;;;;;;0.40;0.40;;;22.40;67.20;;;22.63;53.43;93773.25;5060690;28;20210;-39
2023/08/06 09:02:03;;;;;;;0.40;0.40;;;22.40;67.10;;;22.63;53.74;93772.44;5036599;28;20325;-37
2023/08/06 09:04:36;;;;;;;0.40;0.40;;;22.40;67.10;;;22.62;53.56;93763.66;5018839;28;20546;-37
2023/08/06 09:07:05;;;;;;;0.40;0.40;;;22.40;67.10;;;22.63;53.28;93773.25;5056063;28;20533;-37
2023/08/06 09:09:37;;;;;;;0.40;0.40;;;22.40;67.10;;;22.63;53.60;93759.09;5073643;28;20582;-37
2023/08/06 09:12:25;;;;;;;0.40;0.40;;;22.40;67.10;;;22.63;53.43;93770.59;5057258;28;20180;-37
2023/08/06 09:14:54;;;;;;;0.40;0.40;;;22.40;67.10;;;22.64;53.45;93758.00;5057581;28;20295;-37
2023/08/06 09:17:21;;;;;;;0.40;0.40;;;22.40;67.10;;;22.66;53.64;93763.84;5057090;28;20222;-37
2023/08/06 09:19:49;;;;;;;0.40;0.40;;;22.40;67.20;;;22.67;53.47;93770.78;5056842;28;20642;-37
2023/08/06 09:22:16;;;;;;;0.40;0.40;;;22.50;67.30;;;22.67;53.58;93768.13;5057240;28;20205;-37
2023/08/06 09:24:44;;;;;;;0.40;0.40;;;22.50;67.20;;;22.69;53.39;93766.72;5056639;28;20282;-37
2023/08/06 09:27:15;;;;;;;0.40;0.40;;;22.50;67.20;;;22.71;53.66;93769.09;5056519;28;20259;-37
2023/08/06 09:29:45;;;;;;;0.50;0.50;;;22.50;67.20;;;22.71;53.47;93767.19;5056751;28;20283;-37
2023/08/06 09:32:13;;;;;;;0.40;0.40;;;22.50;67.20;;;22.73;53.42;93750.06;5077069;28;20620;-37
2023/08/06 09:34:42;;;;;;;0.40;0.40;;;22.50;67.20;;;22.74;53.26;93760.50;5076949;28;20192;-37
2023/08/06 09:37:10;;;;;;;0.40;0.40;;;22.50;67.20;;;22.74;53.35;93765.84;5075650;28;20191;-37
2023/08/06 09:39:42;;;;;;;0.40;0.40;;;22.50;67.10;;;22.75;53.31;93759.38;5073343;28;20232;-37
2023/08/06 09:42:10;;;;;;;0.40;0.40;;;22.60;67.10;;;22.75;53.38;93763.94;5056397;28;20614;-37
2023/08/06 09:44:40;;;;;;;0.40;0.40;;;22.60;67.10;;;22.77;53.33;93769.78;5056380;28;20205;-37
2023/08/06 09:47:07;;;;;;;0.40;0.40;;;22.50;67.10;;;22.78;53.28;93766.03;5075897;28;20317;-37
2023/08/06 09:49:34;;;;;;;0.50;0.50;;;22.60;67.10;;;22.78;53.50;93772.16;5075133;28;20204;-37
2023/08/06 09:52:02;;;;;;;0.40;0.40;;;22.60;67.10;;;22.80;53.46;93761.16;5076372;28;20266;-37
2023/08/06 09:54:30;;;;;;;0.35;0.35;;;22.60;67.10;;;22.79;53.50;93771.09;5075534;28;20191;-38
2023/08/06 09:56:57;;;;;;;0.30;0.30;;;22.60;67.10;;;22.81;53.32;93770.78;5076083;28;20190;-39
2023/08/06 09:59:25;;;;;;;0.40;0.40;;;22.60;67.10;;;22.78;53.21;93761.47;5076300;28;20203;-39
2023/08/06 10:01:55;;;;;;;0.40;0.40;;;22.60;67.00;;;22.83;53.24;93768.59;5062180;28;20195;-39
2023/08/06 10:04:23;;;;;;;0.40;0.40;;;22.60;66.90;;;22.84;53.35;93762.19;5073560;28;20190;-39
2023/08/06 10:06:58;;;;;;;0.40;0.40;;;22.60;67.00;;;22.84;53.23;93759.50;5069362;28;20208;-39
2023/08/06 10:09:25;;;;;;;0.40;0.40;;;22.60;66.90;;;22.85;53.14;93761.06;5069031;28;20294;-39
2023/08/06 10:11:53;;;;;;;0.40;0.40;;;22.60;66.90;;;22.85;53.22;93756.53;5062183;28;20608;-39
2023/08/06 10:14:37;;;;;;;0.40;0.40;;;22.60;66.90;;;22.86;53.12;93759.97;5074352;28;20200;-39
2023/08/06 10:17:04;;;;;;;0.40;0.40;;;22.60;66.80;;;22.86;53.22;93763.47;5062810;28;20238;-39
2023/08/06 10:19:32;;;;;;;0.40;0.40;;;22.70;67.00;;;22.88;53.11;93765.03;5061491;28;20210;-39
2023/08/06 10:22:18;;;;;;;0.40;0.40;;;22.70;66.90;;;22.89;53.01;93766.59;5059017;28;20206;-39
2023/08/06 10:24:55;;;;;;;0.40;0.40;;;22.70;66.90;;;22.90;53.19;93770.88;5069612;28;20199;-39
2023/08/06 10:27:33;;;;;;;0.30;0.30;;;22.70;66.90;;;22.90;53.19;93769.00;5072864;28;20207;-39